Time;durP1;ratioP1;P1;durP2;ratioP2;P2;SDS_P1;SDS_P2;PMS_P1;PMS_P2;Temp;Humidity;BMP_temperature;BMP_pressure;BME280_temperature;BME280_humidity;BME280_pressure;Samples;Min_cycle;Max_cycle;Signal;HPM_P1;HPM_P2
2021/07/20 00:00:13;;;;;;;6.13;1.40;;;17.80;99.90;;;17.90;67.17;97562.03;170212;29;1535;-74
2021/07/20 00:00:23;;;;;;;6.01;1.51;;;17.80;99.90;;;17.89;66.04;97568.53;171665;28;1387;-74
2021/07/20 00:00:29;;;;;;;4.78;1.49;;;17.80;99.90;;;17.93;65.74;97563.47;170375;29;1122;-74
2021/07/20 00:00:35;;;;;;;4.80;1.47;;;17.80;99.90;;;17.91;66.13;97568.31;170372;29;1252;-74
2021/07/20 00:00:41;;;;;;;4.22;1.33;;;17.80;99.90;;;17.91;66.19;97571.03;170100;29;1245;-74
2021/07/20 00:00:47;;;;;;;4.63;1.33;;;17.80;99.90;;;17.90;66.66;97564.75;171570;28;1468;-74
2021/07/20 00:00:53;;;;;;;5.13;1.40;;;17.80;99.90;;;17.95;66.16;97577.69;170489;28;1231;-74
2021/07/20 00:01:00;;;;;;;4.82;1.45;;;17.80;99.90;;;17.90;66.26;97569.38;170424;28;1156;-74
2021/07/20 00:01:06;;;;;;;4.46;1.40;;;17.80;99.90;;;17.89;66.41;97564.97;170507;28;1307;-74
2021/07/20 00:01:15;;;;;;;4.10;1.40;;;17.80;99.90;;;17.93;66.68;97572.44;169626;29;1338;-74
2021/07/20 00:01:21;;;;;;;5.73;1.43;;;17.80;99.90;;;17.87;66.83;97567.13;169634;29;1326;-74
2021/07/20 00:01:27;;;;;;;5.80;1.40;;;17.80;99.90;;;17.89;66.36;97567.69;170378;28;1316;-74
2021/07/20 00:01:34;;;;;;;5.80;1.40;;;17.80;99.90;;;17.87;66.56;97565.22;171192;28;955;-73
2021/07/20 00:01:41;;;;;;;6.33;1.37;;;17.80;99.90;;;17.91;66.10;97568.31;171026;28;1534;-74
2021/07/20 00:01:49;;;;;;;5.83;1.40;;;17.80;99.90;;;17.89;66.17;97575.88;170514;29;1273;-74
2021/07/20 00:01:56;;;;;;;4.98;1.32;;;17.80;99.90;;;17.92;66.63;97580.88;169845;29;941;-74
2021/07/20 00:02:21;;;;;;;5.57;1.47;;;17.80;99.90;;;17.84;66.87;97573.84;171073;28;1035;-74
2021/07/20 00:02:50;;;;;;;4.86;1.35;;;17.80;99.90;;;17.79;67.18;97574.53;171059;28;1379;-74
2021/07/20 00:02:58;;;;;;;3.54;1.29;;;17.70;99.90;;;17.73;67.84;97570.00;171579;28;1183;-74
2021/07/20 00:03:10;;;;;;;4.70;1.40;;;17.70;99.90;;;17.74;67.79;97579.84;170526;29;1041;-74
2021/07/20 00:03:15;;;;;;;5.46;1.46;;;17.70;99.90;;;17.72;67.80;97570.25;170379;28;1501;-74
2021/07/20 00:03:21;;;;;;;5.03;1.30;;;17.60;99.90;;;17.74;67.60;97582.56;171038;28;1073;-74
2021/07/20 00:03:27;;;;;;;4.78;1.38;;;17.60;99.90;;;17.73;67.68;97575.47;171680;28;1173;-74
2021/07/20 00:03:33;;;;;;;4.25;1.40;;;17.70;99.90;;;17.69;67.98;97573.44;171109;28;852;-74
2021/07/20 00:03:39;;;;;;;3.17;1.35;;;17.60;99.90;;;17.70;68.15;97575.94;170317;29;1386;-74
2021/07/20 00:03:48;;;;;;;3.08;1.33;;;17.60;99.90;;;17.67;68.24;97570.94;170415;29;1437;-74
2021/07/20 00:03:54;;;;;;;3.13;1.33;;;17.60;99.90;;;17.70;68.24;97570.50;171052;28;1368;-74
2021/07/20 00:04:00;;;;;;;3.35;1.38;;;17.60;99.90;;;17.68;67.95;97567.16;171105;28;1083;-74
2021/07/20 00:04:06;;;;;;;3.90;1.45;;;17.60;99.90;;;17.74;67.92;97587.19;171827;28;1426;-75
2021/07/20 00:04:12;;;;;;;4.22;1.45;;;17.60;99.90;;;17.73;67.95;97580.06;171019;28;1277;-74
2021/07/20 00:04:17;;;;;;;5.32;1.50;;;17.60;99.90;;;17.69;67.99;97576.16;169618;29;1340;-74
2021/07/20 00:04:23;;;;;;;7.18;1.63;;;17.60;99.90;;;17.71;67.63;97577.59;170499;29;892;-74
2021/07/20 00:04:29;;;;;;;7.45;1.52;;;17.60;99.90;;;17.71;67.79;97572.16;169569;29;1510;-74
2021/07/20 00:04:35;;;;;;;7.10;1.50;;;17.60;99.90;;;17.68;67.62;97572.59;169647;29;1344;-74
2021/07/20 00:04:41;;;;;;;6.90;1.50;;;17.60;99.90;;;17.77;67.63;97579.38;169717;29;1011;-74
2021/07/20 00:04:47;;;;;;;5.88;1.50;;;17.60;99.90;;;17.71;67.36;97571.31;169899;29;880;-74
2021/07/20 00:04:53;;;;;;;3.83;1.48;;;17.60;99.90;;;17.77;67.45;97582.09;170406;29;1246;-74
2021/07/20 00:04:59;;;;;;;3.58;1.50;;;17.60;99.90;;;17.65;67.25;97564.06;170936;28;1723;-74
2021/07/20 00:05:10;;;;;;;3.50;1.50;;;17.60;99.90;;;17.77;67.20;97584.81;170481;29;1300;-74
2021/07/20 00:05:23;;;;;;;5.21;1.66;;;17.60;99.90;;;17.71;67.38;97563.97;171046;28;1346;-74
2021/07/20 00:05:29;;;;;;;7.80;1.70;;;17.70;99.90;;;17.80;67.27;97578.94;170922;28;1059;-74
2021/07/20 00:05:38;;;;;;;8.03;1.60;;;17.60;99.90;;;17.77;67.30;97573.94;170979;28;1423;-74
2021/07/20 00:05:44;;;;;;;7.31;1.50;;;17.70;99.90;;;17.76;67.50;97572.28;172329;28;1454;-74
2021/07/20 00:05:50;;;;;;;7.07;1.47;;;17.70;99.90;;;17.78;67.71;97580.22;170375;29;1255;-74
2021/07/20 00:05:56;;;;;;;5.38;1.40;;;17.60;99.90;;;17.76;67.59;97575.00;170911;28;1320;-74
2021/07/20 00:06:02;;;;;;;5.18;1.40;;;17.70;99.90;;;17.78;67.57;97581.03;170093;29;1279;-74
2021/07/20 00:06:08;;;;;;;4.76;1.50;;;17.70;99.90;;;17.81;68.13;97583.31;169651;29;1271;-74
2021/07/20 00:06:16;;;;;;;4.17;1.37;;;17.70;99.90;;;17.79;67.86;97580.00;169638;29;1189;-74
2021/07/20 00:06:22;;;;;;;4.68;1.48;;;17.70;99.90;;;17.81;67.70;97577.88;169984;29;1771;-74
2021/07/20 00:06:28;;;;;;;4.57;1.48;;;17.70;99.90;;;17.81;67.61;97574.31;169836;29;959;-74
2021/07/20 00:06:34;;;;;;;4.80;1.42;;;17.70;99.90;;;17.83;67.57;97580.34;169860;29;865;-74
2021/07/20 00:06:40;;;;;;;4.80;1.58;;;17.70;99.90;;;17.78;67.35;97575.59;170476;28;1461;-74
2021/07/20 00:06:46;;;;;;;5.28;1.60;;;17.70;99.90;;;17.80;67.76;97587.09;171631;28;1289;-74
2021/07/20 00:06:52;;;;;;;4.40;1.50;;;17.70;99.90;;;17.80;68.02;97581.66;171088;28;1048;-75
2021/07/20 00:06:58;;;;;;;4.35;1.50;;;17.70;99.90;;;17.82;67.56;97582.22;169526;29;1407;-74
2021/07/20 00:07:04;;;;;;;4.70;1.60;;;17.70;99.90;;;17.76;67.81;97574.19;170302;29;1171;-74
2021/07/20 00:07:10;;;;;;;5.07;1.52;;;17.70;99.90;;;17.78;67.51;97581.03;169627;29;1119;-74
2021/07/20 00:07:16;;;;;;;4.17;1.47;;;17.70;99.90;;;17.76;67.31;97579.63;170577;29;912;-74
2021/07/20 00:07:22;;;;;;;5.23;1.60;;;17.70;99.90;;;17.75;67.62;97570.63;170995;28;1250;-74
2021/07/20 00:07:28;;;;;;;5.75;1.70;;;17.70;99.90;;;17.73;67.42;97572.75;171216;28;989;-74
2021/07/20 00:07:34;;;;;;;5.13;1.58;;;17.70;99.90;;;17.72;67.30;97565.63;170265;29;1105;-74
2021/07/20 00:07:41;;;;;;;5.07;1.60;;;17.70;99.90;;;17.77;67.35;97576.66;169701;29;1308;-74
2021/07/20 00:07:52;;;;;;;4.85;1.58;;;17.70;99.90;;;17.78;67.32;97578.31;171218;28;1547;-73
2021/07/20 00:08:01;;;;;;;4.31;1.50;;;17.70;99.90;;;17.81;67.19;97575.16;171068;28;1350;-74
2021/07/20 00:08:10;;;;;;;3.67;1.37;;;17.70;99.90;;;17.83;67.10;97580.34;169207;29;844;-74
2021/07/20 00:08:17;;;;;;;3.83;1.39;;;17.70;99.90;;;17.78;67.19;97572.88;170699;28;2300;-74
2021/07/20 00:08:23;;;;;;;4.04;1.36;;;17.70;99.90;;;17.78;66.94;97578.31;171164;28;1123;-74
2021/07/20 00:08:29;;;;;;;4.72;1.38;;;17.60;99.90;;;17.75;67.07;97567.06;170316;29;1447;-74
2021/07/20 00:08:35;;;;;;;4.88;1.40;;;17.70;99.90;;;17.84;67.07;97582.84;169174;29;947;-74
2021/07/20 00:08:41;;;;;;;4.80;1.45;;;17.70;99.90;;;17.79;66.74;97574.53;170851;28;1201;-74
2021/07/20 00:08:47;;;;;;;4.47;1.40;;;17.70;99.90;;;17.81;66.84;97579.78;171167;28;923;-74
2021/07/20 00:08:53;;;;;;;3.83;1.42;;;17.70;99.90;;;17.84;66.44;97584.75;170407;29;1320;-74
2021/07/20 00:08:59;;;;;;;3.50;1.37;;;17.70;99.90;;;17.76;66.39;97575.00;169844;29;1177;-74
2021/07/20 00:09:06;;;;;;;3.90;1.37;;;17.70;99.90;;;17.76;67.27;97568.75;170432;29;1286;-74
2021/07/20 00:09:13;;;;;;;4.25;1.30;;;17.70;99.90;;;17.77;67.48;97576.66;170281;29;1647;-74
2021/07/20 00:09:19;;;;;;;4.73;1.30;;;17.70;99.90;;;17.76;67.50;97585.06;169672;29;1515;-74
2021/07/20 00:09:25;;;;;;;4.63;1.35;;;17.70;99.90;;;17.73;67.52;97580.91;170346;29;1242;-74
2021/07/20 00:09:31;;;;;;;4.97;1.40;;;17.70;99.90;;;17.71;67.48;97583.03;170491;29;983;-74
2021/07/20 00:09:36;;;;;;;5.03;1.30;;;17.70;99.90;;;17.74;67.40;97588.00;171028;28;1371;-74
2021/07/20 00:09:42;;;;;;;6.45;1.40;;;17.70;99.90;;;17.73;67.63;97580.91;171091;28;1158;-74
2021/07/20 00:09:48;;;;;;;6.55;1.30;;;17.70;99.90;;;17.67;67.95;97570.94;170987;28;1085;-74
2021/07/20 00:09:54;;;;;;;7.45;1.30;;;17.70;99.90;;;17.71;67.81;97583.03;171052;28;1332;-74
2021/07/20 00:10:03;;;;;;;7.18;1.35;;;17.60;99.90;;;17.71;67.72;97582.22;170319;29;994;-75
2021/07/20 00:10:20;;;;;;;8.28;1.48;;;17.60;99.90;;;17.69;67.78;97579.72;170855;28;1662;-74
2021/07/20 00:11:02;;;;;;;7.65;1.60;;;17.60;99.90;;;17.74;67.36;97574.41;171561;28;1414;-74
2021/07/20 00:11:08;;;;;;;5.44;1.45;;;17.70;99.90;;;17.80;67.72;97591.72;169254;29;1438;-74
2021/07/20 00:11:14;;;;;;;3.53;1.13;;;17.70;99.90;;;17.74;67.64;97568.97;170390;29;1320;-74
2021/07/20 00:11:20;;;;;;;4.22;1.25;;;17.70;99.90;;;17.81;67.44;97583.31;170779;28;2084;-74
2021/07/20 00:11:26;;;;;;;5.20;1.45;;;17.70;99.90;;;17.77;67.88;97573.94;169980;29;1417;-74
2021/07/20 00:11:34;;;;;;;4.70;1.40;;;17.70;99.90;;;17.75;67.67;97576.06;170365;29;1173;-74
2021/07/20 00:11:40;;;;;;;4.90;1.50;;;17.70;99.90;;;17.77;67.96;97573.94;171709;28;1331;-74
2021/07/20 00:11:46;;;;;;;4.43;1.58;;;17.70;99.90;;;17.75;68.03;97565.19;171637;28;1128;-73
2021/07/20 00:11:52;;;;;;;4.10;1.40;;;17.70;99.90;;;17.83;68.17;97586.63;169884;29;1126;-74
2021/07/20 00:11:58;;;;;;;4.00;1.38;;;17.70;99.90;;;17.81;67.99;97586.03;169089;29;1318;-74
2021/07/20 00:12:05;;;;;;;4.78;1.60;;;17.70;99.90;;;17.81;67.79;97582.50;169709;29;1350;-74
2021/07/20 00:12:11;;;;;;;4.57;1.60;;;17.60;99.90;;;17.78;67.61;97578.31;171177;28;1510;-74
2021/07/20 00:12:17;;;;;;;4.32;1.58;;;17.70;99.90;;;17.79;67.68;97585.44;171813;28;1049;-74
2021/07/20 00:12:23;;;;;;;4.35;1.63;;;17.60;99.90;;;17.80;67.90;97586.28;170728;28;1331;-74
2021/07/20 00:12:29;;;;;;;4.35;1.63;;;17.70;99.90;;;17.80;67.35;97587.09;170247;29;1098;-74
2021/07/20 00:12:35;;;;;;;5.00;1.45;;;17.60;99.90;;;17.75;67.54;97575.25;169738;29;1703;-74
2021/07/20 00:12:42;;;;;;;5.36;1.50;;;17.70;99.90;;;17.80;67.00;97581.66;170373;28;1431;-74
2021/07/20 00:12:49;;;;;;;5.13;1.50;;;17.70;99.90;;;17.71;67.29;97566.72;171216;28;817;-74
2021/07/20 00:12:56;;;;;;;5.08;1.52;;;17.70;99.90;;;17.80;66.93;97575.38;170931;28;1210;-74
2021/07/20 00:13:06;;;;;;;4.70;1.50;;;17.60;99.90;;;17.78;66.94;97575.59;169668;29;1667;-74
2021/07/20 00:13:12;;;;;;;4.34;1.40;;;17.70;99.90;;;17.75;66.91;97569.78;169816;29;1262;-74
2021/07/20 00:13:19;;;;;;;5.53;1.38;;;17.70;99.90;;;17.75;66.86;97580.69;170377;29;1058;-74
2021/07/20 00:13:25;;;;;;;5.88;1.50;;;17.70;99.90;;;17.71;66.97;97576.75;170456;29;854;-74
2021/07/20 00:13:32;;;;;;;6.63;1.60;;;17.70;99.90;;;17.75;67.41;97584.25;171614;28;1018;-74
2021/07/20 00:13:38;;;;;;;6.07;1.57;;;17.60;99.90;;;17.75;67.71;97589.69;170543;28;1393;-74
2021/07/20 00:13:44;;;;;;;7.03;1.80;;;17.60;99.90;;;17.74;67.55;97582.56;169802;29;1100;-74
2021/07/20 00:13:50;;;;;;;6.38;1.70;;;17.60;99.90;;;17.69;68.13;97570.72;170921;28;1389;-74
2021/07/20 00:13:56;;;;;;;6.85;1.70;;;17.70;99.90;;;17.68;68.33;97580.75;171871;28;950;-74
2021/07/20 00:14:03;;;;;;;6.15;1.67;;;17.60;99.90;;;17.64;68.55;97576.84;170941;28;930;-74
2021/07/20 00:14:10;;;;;;;7.30;1.60;;;17.70;99.90;;;17.65;68.36;97583.97;170536;29;1002;-74
2021/07/20 00:14:16;;;;;;;6.65;1.50;;;17.60;99.90;;;17.63;68.34;97571.63;169713;29;1347;-74
2021/07/20 00:14:21;;;;;;;6.22;1.50;;;17.60;99.90;;;17.56;67.83;97562.69;170424;29;1338;-75
2021/07/20 00:14:27;;;;;;;5.78;1.45;;;17.60;99.90;;;17.67;68.07;97587.25;170291;29;1489;-74
2021/07/20 00:14:33;;;;;;;5.20;1.48;;;17.60;99.90;;;17.67;68.31;97586.44;170458;29;975;-74
2021/07/20 00:14:39;;;;;;;4.75;1.50;;;17.60;99.90;;;17.67;68.13;97594.59;170669;28;1024;-74
2021/07/20 00:14:45;;;;;;;3.90;1.40;;;17.60;99.90;;;17.60;68.05;97574.81;169121;29;1227;-74
2021/07/20 00:14:52;;;;;;;3.45;1.33;;;17.60;99.90;;;17.62;68.38;97578.13;169242;29;1226;-74
2021/07/20 00:14:58;;;;;;;3.33;1.50;;;17.60;99.90;;;17.66;68.10;97580.19;169849;29;1250;-74
2021/07/20 00:15:11;;;;;;;3.83;1.43;;;17.60;99.90;;;17.64;68.12;97574.13;169724;29;1282;-74
2021/07/20 00:15:19;;;;;;;4.45;1.40;;;17.60;99.90;;;17.65;68.44;97581.25;170943;28;1486;-74
2021/07/20 00:15:26;;;;;;;4.93;1.33;;;17.60;99.90;;;17.66;68.30;97574.75;171104;28;1285;-74
2021/07/20 00:15:34;;;;;;;4.93;1.33;;;17.60;99.90;;;17.63;67.89;97586.06;171345;28;1398;-73
2021/07/20 00:15:40;;;;;;;4.72;1.32;;;17.60;99.90;;;17.59;67.85;97570.38;170545;29;1163;-74
2021/07/20 00:15:47;;;;;;;4.60;1.30;;;17.60;99.90;;;17.61;67.89;97576.47;170183;29;1364;-74
2021/07/20 00:15:58;;;;;;;4.67;1.43;;;17.60;99.90;;;17.64;67.67;97587.72;169197;29;1268;-74
2021/07/20 00:16:05;;;;;;;4.75;1.36;;;17.60;99.90;;;17.63;67.72;97583.34;169131;29;1149;-74
2021/07/20 00:16:14;;;;;;;4.47;1.37;;;17.60;99.90;;;17.59;68.05;97573.97;169550;29;1007;-73
2021/07/20 00:16:20;;;;;;;5.30;1.47;;;17.60;99.90;;;17.61;68.32;97582.75;171112;28;927;-74
2021/07/20 00:16:26;;;;;;;4.97;1.45;;;17.60;99.90;;;17.62;68.43;97589.84;170174;29;1847;-74
2021/07/20 00:16:32;;;;;;;4.95;1.52;;;17.50;99.90;;;17.58;68.61;97577.72;171026;28;1595;-74
2021/07/20 00:16:38;;;;;;;5.50;1.58;;;17.50;99.90;;;17.58;68.57;97577.72;170628;28;1637;-74
2021/07/20 00:16:44;;;;;;;4.87;1.53;;;17.50;99.90;;;17.59;68.59;97581.28;171210;28;834;-74
2021/07/20 00:16:50;;;;;;;4.63;1.50;;;17.50;99.90;;;17.58;68.47;97583.16;171023;28;1528;-74
2021/07/20 00:16:56;;;;;;;4.82;1.50;;;17.50;99.90;;;17.58;68.93;97580.44;169657;29;1165;-74
2021/07/20 00:17:03;;;;;;;7.47;1.50;;;17.50;99.90;;;17.59;68.94;97584.88;171019;28;1245;-73
2021/07/20 00:17:09;;;;;;;8.80;1.48;;;17.50;99.90;;;17.60;68.84;97574.81;171102;28;1625;-74
2021/07/20 00:17:15;;;;;;;11.25;1.45;;;17.50;99.90;;;17.63;68.66;97588.78;169778;29;923;-74
2021/07/20 00:17:22;;;;;;;11.12;1.46;;;17.50;99.90;;;17.62;68.39;97584.41;171592;28;1587;-74
2021/07/20 00:17:29;;;;;;;10.14;1.36;;;17.50;99.90;;;17.66;68.61;97591.06;171071;28;1336;-75
2021/07/20 00:17:36;;;;;;;6.43;1.40;;;17.60;99.90;;;17.64;68.65;97579.56;170850;28;1275;-74
2021/07/20 00:17:45;;;;;;;5.02;1.40;;;17.60;99.90;;;17.67;68.29;97579.09;170840;28;1660;-74
2021/07/20 00:17:55;;;;;;;5.10;1.44;;;17.60;99.90;;;17.58;68.59;97571.44;171705;28;1180;-74
2021/07/20 00:18:14;;;;;;;6.07;1.51;;;17.60;99.90;;;17.66;68.57;97580.19;170390;29;1131;-74
2021/07/20 00:18:29;;;;;;;6.32;1.51;;;17.60;99.90;;;17.56;67.79;97571.69;169774;29;1435;-74
2021/07/20 00:18:37;;;;;;;4.45;1.34;;;17.60;99.90;;;17.60;67.98;97578.38;170510;29;1198;-74
2021/07/20 00:18:43;;;;;;;2.90;1.20;;;17.60;99.90;;;17.55;68.17;97566.47;170321;29;1620;-74
2021/07/20 00:18:49;;;;;;;2.92;1.20;;;17.60;99.90;;;17.61;68.27;97571.88;169787;29;1372;-74
2021/07/20 00:18:55;;;;;;;3.45;1.40;;;17.50;99.90;;;17.62;68.60;97578.13;170393;29;1161;-75
2021/07/20 00:19:02;;;;;;;4.22;1.48;;;17.50;99.90;;;17.58;68.36;97575.00;170394;29;920;-74
2021/07/20 00:19:08;;;;;;;4.56;1.56;;;17.50;99.90;;;17.62;68.70;97576.22;170242;29;1835;-74
2021/07/20 00:19:14;;;;;;;4.55;1.60;;;17.50;99.90;;;17.56;68.45;97576.31;171097;28;973;-74
2021/07/20 00:19:20;;;;;;;4.60;1.60;;;17.50;99.90;;;17.61;68.68;97588.22;170997;28;1198;-74
2021/07/20 00:19:26;;;;;;;4.55;1.55;;;17.50;99.90;;;17.56;68.54;97574.41;171896;28;917;-74
2021/07/20 00:19:32;;;;;;;3.67;1.60;;;17.60;99.90;;;17.62;69.01;97583.56;170898;28;1197;-74
2021/07/20 00:19:38;;;;;;;4.72;1.67;;;17.50;99.90;;;17.64;68.79;97581.44;171092;28;1312;-74
2021/07/20 00:19:44;;;;;;;5.32;1.80;;;17.50;99.90;;;17.63;68.44;97579.78;171565;28;1277;-73
2021/07/20 00:19:50;;;;;;;5.25;1.83;;;17.50;99.90;;;17.57;68.15;97573.34;171674;28;1534;-74
2021/07/20 00:19:56;;;;;;;5.27;1.80;;;17.60;99.90;;;17.61;67.71;97584.66;170322;29;1663;-74
2021/07/20 00:20:05;;;;;;;5.23;1.60;;;17.50;99.90;;;17.60;67.85;97575.66;170002;29;1966;-73
2021/07/20 00:20:15;;;;;;;4.29;1.39;;;17.50;99.90;;;17.54;68.34;97572.97;170058;29;1483;-74
2021/07/20 00:20:22;;;;;;;4.10;1.20;;;17.50;99.90;;;17.53;68.96;97571.31;169050;29;1353;-74
2021/07/20 00:20:29;;;;;;;4.18;1.10;;;17.50;99.90;;;17.56;68.86;97574.41;170270;29;1368;-74
2021/07/20 00:20:36;;;;;;;3.83;1.20;;;17.50;99.90;;;17.54;69.08;97570.25;170455;29;907;-74
2021/07/20 00:20:44;;;;;;;3.56;1.24;;;17.50;99.90;;;17.52;69.26;97565.03;169012;29;1508;-74
2021/07/20 00:20:51;;;;;;;3.83;1.38;;;17.50;99.90;;;17.54;69.24;97573.81;170937;28;1014;-74
2021/07/20 00:20:57;;;;;;;4.20;1.50;;;17.50;99.90;;;17.52;69.19;97566.91;170495;29;1000;-74
2021/07/20 00:21:06;;;;;;;5.50;1.50;;;17.50;99.90;;;17.53;69.17;97574.84;170973;28;1147;-74
2021/07/20 00:21:12;;;;;;;6.77;1.50;;;17.50;99.90;;;17.48;68.93;97568.44;170395;29;910;-74
2021/07/20 00:21:18;;;;;;;6.03;1.40;;;17.50;99.90;;;17.54;68.87;97578.41;171654;28;1072;-74
2021/07/20 00:21:24;;;;;;;6.28;1.40;;;17.50;99.90;;;17.50;69.20;97569.88;170513;29;864;-74
2021/07/20 00:21:31;;;;;;;5.75;1.40;;;17.50;99.90;;;17.54;68.99;97581.97;170151;29;1538;-74
2021/07/20 00:21:37;;;;;;;3.73;1.40;;;17.50;99.90;;;17.53;68.79;97568.59;170574;29;986;-74
2021/07/20 00:21:43;;;;;;;3.33;1.33;;;17.50;99.90;;;17.53;68.86;97572.13;169807;29;1178;-74
2021/07/20 00:21:51;;;;;;;3.72;1.40;;;17.50;99.90;;;17.52;68.98;97573.19;170463;29;1218;-74
2021/07/20 00:21:56;;;;;;;3.52;1.42;;;17.50;99.90;;;17.53;68.86;97571.31;170541;28;891;-73
2021/07/20 00:22:03;;;;;;;3.75;1.40;;;17.50;99.90;;;17.54;68.31;97576.53;170985;28;1165;-74
2021/07/20 00:22:09;;;;;;;4.40;1.40;;;17.50;99.90;;;17.56;68.64;97573.59;171056;28;1095;-74
2021/07/20 00:22:16;;;;;;;4.32;1.40;;;17.50;99.90;;;17.59;68.54;97578.56;170913;28;1205;-74
2021/07/20 00:22:22;;;;;;;4.97;1.40;;;17.50;99.90;;;17.55;68.40;97571.91;171007;28;1248;-74
2021/07/20 00:22:28;;;;;;;5.68;1.33;;;17.50;99.90;;;17.52;69.10;97573.19;171055;28;1204;-74
2021/07/20 00:22:34;;;;;;;6.65;1.45;;;17.50;99.90;;;17.55;68.99;97580.09;169767;29;1174;-74
2021/07/20 00:22:40;;;;;;;7.72;1.80;;;17.40;99.90;;;17.51;69.65;97568.84;171612;28;1351;-75
2021/07/20 00:22:46;;;;;;;8.10;1.80;;;17.40;99.90;;;17.50;69.14;97569.88;171142;28;1536;-74
2021/07/20 00:22:54;;;;;;;7.37;1.80;;;17.40;99.90;;;17.47;68.96;97567.59;170299;29;1380;-74
2021/07/20 00:23:00;;;;;;;7.20;1.77;;;17.40;99.90;;;17.46;68.76;97574.09;171167;28;985;-74
2021/07/20 00:23:07;;;;;;;5.87;1.60;;;17.40;99.90;;;17.51;68.73;97573.44;170818;28;1173;-74
2021/07/20 00:23:13;;;;;;;5.74;1.40;;;17.40;99.90;;;17.50;68.45;97575.34;171089;28;964;-74
2021/07/20 00:23:22;;;;;;;5.66;1.40;;;17.40;99.90;;;17.46;68.58;97563.22;170371;29;979;-74
2021/07/20 00:23:28;;;;;;;6.70;1.50;;;17.40;99.90;;;17.54;68.77;97575.69;170386;29;1405;-74
2021/07/20 00:23:34;;;;;;;5.45;1.50;;;17.40;99.90;;;17.48;69.13;97577.44;171032;28;1061;-74
2021/07/20 00:23:40;;;;;;;5.03;1.50;;;17.40;99.90;;;17.46;69.35;97568.66;171765;28;1494;-74
2021/07/20 00:23:47;;;;;;;5.14;1.52;;;17.40;99.90;;;17.49;69.41;97578.28;170309;28;1538;-74
2021/07/20 00:23:53;;;;;;;5.00;1.60;;;17.40;99.90;;;17.41;69.68;97563.06;170465;29;903;-74
2021/07/20 00:23:59;;;;;;;4.85;1.50;;;17.40;99.90;;;17.40;69.72;97567.72;169612;29;1276;-74
2021/07/20 00:24:05;;;;;;;5.73;1.57;;;17.40;99.90;;;17.37;69.83;97562.69;171023;28;1500;-74
2021/07/20 00:24:12;;;;;;;5.96;1.56;;;17.40;99.90;;;17.44;69.84;97576.25;172189;28;1456;-74
2021/07/20 00:24:18;;;;;;;5.05;1.60;;;17.30;99.90;;;17.36;69.72;97565.63;171072;28;1820;-74
2021/07/20 00:24:23;;;;;;;4.95;1.50;;;17.40;99.90;;;17.36;69.75;97566.47;171563;28;1397;-73
2021/07/20 00:24:30;;;;;;;4.95;1.65;;;17.30;99.90;;;17.38;69.91;97568.97;171107;28;1361;-74
2021/07/20 00:24:36;;;;;;;4.05;1.60;;;17.40;99.90;;;17.39;69.86;97571.47;169474;29;1419;-73
2021/07/20 00:24:42;;;;;;;4.63;1.60;;;17.40;99.90;;;17.37;70.07;97573.59;171097;28;1436;-74
2021/07/20 00:24:48;;;;;;;5.43;1.45;;;17.30;99.90;;;17.34;70.46;97571.34;170941;28;1300;-74
2021/07/20 00:24:54;;;;;;;7.05;1.40;;;17.30;99.90;;;17.31;70.10;97565.50;170365;29;1434;-74
2021/07/20 00:25:00;;;;;;;7.65;1.33;;;17.30;99.90;;;17.37;70.13;97576.31;170390;29;1379;-74
2021/07/20 00:25:10;;;;;;;8.63;1.40;;;17.30;99.90;;;17.31;70.36;97568.22;170789;28;1233;-74
2021/07/20 00:25:17;;;;;;;8.12;1.42;;;17.30;99.90;;;17.33;70.05;97572.38;170195;29;1413;-74
2021/07/20 00:25:23;;;;;;;7.35;1.58;;;17.30;99.90;;;17.30;70.36;97566.59;169851;29;924;-73
2021/07/20 00:25:29;;;;;;;5.68;1.45;;;17.30;99.90;;;17.32;70.13;97573.44;170029;29;1427;-73
2021/07/20 00:25:36;;;;;;;5.45;1.55;;;17.20;99.90;;;17.28;70.13;97563.25;170762;28;1154;-74
2021/07/20 00:25:42;;;;;;;5.56;1.64;;;17.20;99.90;;;17.30;70.22;97563.84;171766;28;1052;-74
2021/07/20 00:25:50;;;;;;;4.77;1.60;;;17.20;99.90;;;17.30;70.55;97574.75;171019;28;1434;-74
2021/07/20 00:25:57;;;;;;;6.40;1.70;;;17.20;99.90;;;17.24;70.52;97562.03;172353;28;1268;-74
2021/07/20 00:26:06;;;;;;;6.60;1.70;;;17.20;99.90;;;17.28;70.41;97563.25;170348;28;1733;-74
2021/07/20 00:26:12;;;;;;;5.81;1.73;;;17.30;99.90;;;17.22;70.31;97556.00;170263;29;1120;-74
2021/07/20 00:26:18;;;;;;;5.35;1.77;;;17.30;99.90;;;17.29;70.02;97567.63;170080;29;1048;-74
2021/07/20 00:26:24;;;;;;;4.13;1.70;;;17.20;99.90;;;17.27;70.34;97558.84;170012;29;1688;-74
2021/07/20 00:26:30;;;;;;;3.38;1.70;;;17.20;99.90;;;17.25;70.22;97569.97;170513;29;936;-74
2021/07/20 00:26:36;;;;;;;3.58;1.60;;;17.20;99.90;;;17.29;70.19;97571.19;170900;28;1063;-74
2021/07/20 00:26:44;;;;;;;3.85;1.55;;;17.20;99.90;;;17.31;70.51;97570.94;169837;29;878;-74
2021/07/20 00:26:50;;;;;;;3.68;1.52;;;17.20;99.90;;;17.25;70.54;97555.56;170039;29;1093;-74
2021/07/20 00:26:56;;;;;;;3.65;1.50;;;17.20;99.90;;;17.24;70.72;97567.47;170480;29;946;-74
2021/07/20 00:27:02;;;;;;;3.72;1.63;;;17.20;99.90;;;17.24;70.79;97570.22;169485;29;1193;-74
2021/07/20 00:27:08;;;;;;;4.03;1.70;;;17.20;99.90;;;17.27;70.65;97572.47;170379;29;1219;-74
2021/07/20 00:27:13;;;;;;;4.23;1.60;;;17.20;99.90;;;17.25;70.36;97561.00;170377;29;982;-74
2021/07/20 00:27:19;;;;;;;5.05;1.73;;;17.20;99.90;;;17.24;70.51;97564.75;170346;29;1491;-74
2021/07/20 00:27:26;;;;;;;6.65;1.77;;;17.20;99.90;;;17.18;70.51;97552.06;170531;29;887;-74
2021/07/20 00:27:32;;;;;;;7.83;1.97;;;17.20;99.90;;;17.15;70.38;97545.19;170897;28;1318;-74
2021/07/20 00:27:39;;;;;;;7.63;2.03;;;17.20;99.90;;;17.25;70.58;97561.00;171135;28;986;-74
2021/07/20 00:27:45;;;;;;;7.30;2.00;;;17.20;99.90;;;17.27;70.56;97559.69;170355;29;1232;-73
2021/07/20 00:27:51;;;;;;;7.23;1.93;;;17.20;99.90;;;17.23;70.16;97555.78;169781;29;1469;-74
2021/07/20 00:27:57;;;;;;;6.13;1.83;;;17.10;99.90;;;17.29;69.70;97560.31;170994;28;1020;-74
2021/07/20 00:28:04;;;;;;;4.73;1.40;;;17.20;99.90;;;17.29;70.06;97554.88;171186;28;828;-74
2021/07/20 00:28:10;;;;;;;4.87;1.40;;;17.20;99.90;;;17.28;70.44;97558.63;170874;28;1722;-74
2021/07/20 00:28:21;;;;;;;5.07;1.30;;;17.20;99.90;;;17.32;70.31;97568.00;171211;28;844;-74
2021/07/20 00:28:27;;;;;;;4.20;1.32;;;17.20;99.90;;;17.32;70.28;97561.72;170333;29;1437;-74
2021/07/20 00:28:33;;;;;;;4.08;1.42;;;17.20;99.90;;;17.34;70.38;97565.06;170396;29;962;-74
2021/07/20 00:28:39;;;;;;;4.77;1.47;;;17.20;99.90;;;17.27;70.44;97558.84;170307;28;1496;-74
2021/07/20 00:28:47;;;;;;;5.40;1.47;;;17.20;99.90;;;17.26;70.19;97555.31;171125;28;852;-74
2021/07/20 00:28:53;;;;;;;6.00;1.67;;;17.20;99.90;;;17.35;70.14;97575.72;171612;28;1315;-74
2021/07/20 00:28:58;;;;;;;6.20;1.55;;;17.20;99.90;;;17.31;70.37;97560.88;171802;28;1454;-74
2021/07/20 00:29:05;;;;;;;7.53;1.60;;;17.20;99.90;;;17.34;70.22;97565.91;172220;28;1314;-74
2021/07/20 00:29:10;;;;;;;6.65;1.58;;;17.20;99.90;;;17.33;70.03;97563.41;172315;28;1641;-74
2021/07/20 00:29:17;;;;;;;5.70;1.55;;;17.20;99.90;;;17.29;70.38;97557.59;172235;28;1318;-74
2021/07/20 00:29:23;;;;;;;5.80;1.35;;;17.20;99.90;;;17.31;70.20;97560.88;171857;28;1006;-74
2021/07/20 00:29:29;;;;;;;5.95;1.45;;;17.20;99.90;;;17.31;69.96;97554.63;170992;28;1096;-74
2021/07/20 00:29:35;;;;;;;5.20;1.50;;;17.20;99.90;;;17.37;70.17;97572.75;170542;29;917;-74
2021/07/20 00:29:42;;;;;;;5.65;1.67;;;17.20;99.90;;;17.33;69.84;97557.94;170410;29;1610;-74
2021/07/20 00:29:48;;;;;;;5.97;1.73;;;17.20;99.90;;;17.32;69.93;97561.72;171135;28;1096;-74
2021/07/20 00:29:53;;;;;;;5.13;1.70;;;17.20;99.90;;;17.33;70.23;97563.41;170984;28;1001;-74
2021/07/20 00:29:59;;;;;;;5.60;1.60;;;17.20;99.90;;;17.35;70.11;97566.72;170869;28;1185;-74
2021/07/20 00:30:08;;;;;;;5.10;1.50;;;17.20;99.90;;;17.31;69.93;97555.44;170867;28;1457;-74
2021/07/20 00:30:16;;;;;;;4.97;1.40;;;17.20;99.90;;;17.37;70.10;97570.03;170447;28;1063;-74
2021/07/20 00:30:23;;;;;;;6.57;1.60;;;17.20;99.90;;;17.33;70.12;97568.84;169658;29;1434;-73
2021/07/20 00:30:30;;;;;;;5.14;1.50;;;17.20;99.90;;;17.31;70.00;97562.78;171194;28;1041;-74
2021/07/20 00:30:36;;;;;;;4.54;1.50;;;17.20;99.90;;;17.34;70.24;97567.78;171597;28;1206;-74